Impacts TAF Board INFO
FOR SITUATIONAL AWARENESS. NOT TO BE USED FOR FLIGHT PLANNING PURPOSES.
IDs:

KPIT - Pittsburgh Intl, PA, US

Issued at 2009 UTC 24 Feb 2018
Updated at 2201 UTC 24 Feb 2018
Potential Impact None Slight Moderate High
Time2151Z 24/23Z 25/00Z 25/01Z 25/02Z 25/03Z 25/04Z 25/05Z 25/06Z 25/07Z 25/08Z 25/09Z 25/10Z 25/11Z>>
Type OBS PRVL PRVL PRVL PRVL PRVL PRVL PRVL PRVL PRVL PRVL PRVL PRVL PRVL
VIS 10 >6 >6 >6 3 3 3 3 2 2 2 2 2 2
CIG 65 15 15 15 15 15 15 15 8 8 8 8 8 8
Cover OVC BKN BKN BKN OVC OVC OVC OVC OVC OVC OVC OVC OVC OVC
FltCat VFR MVFR MVFR MVFR MVFR MVFR MVFR MVFR IFR IFR IFR IFR IFR IFR
WX -- VCSH VCSH VCSH -SHRA -SHRA -SHRA -SHRA SHRA SHRA SHRA SHRA SHRA SHRA
WDir 100 110 110 110 110 110 110 110 140 140 140 140 140 140
WSpd 11 7 7 7 8 8 8 8 9 9 9 9 9 9
WGst -- -- -- -- -- -- -- -- -- -- -- -- -- --

Raw TAF
KPIT 242009Z 2420/2524 11007KT P6SM VCSH BKN015
  TEMPO 2420/2422 OVC035
  FM250200 11008KT 3SM -SHRA OVC015 WS020/19035KT
  FM250600 14009KT 2SM SHRA OVC008 WS020/19035KT
  FM251400 21011G21KT 4SM -SHRA OVC015 WS020/19040KT
  FM251600 23010G18KT P6SM VCSH BKN050
  FM251800 25009KT P6SM SCT250


Raw METAR
KPIT 242151Z 10011KT 10SM FEW012 BKN065 OVC090 09/07 A3002 RMK AO2 SLP177 T00890072
KPIT 242121Z 10009KT 10SM SCT010 SCT016 OVC065 08/07 A3004 RMK AO2 T00830072
KPIT 242051Z 10010KT 10SM OVC010 08/07 A3003 RMK AO2 RAB07E22DZB22E33 SLP180 P0000 60000 T00830072 58033
KPIT 242044Z 10008KT 10SM OVC010 08/07 A3003 RMK AO2 RAB07E22DZB22E33 P0000 T00830072
KPIT 242023Z 09010KT 10SM -DZ BKN008 BKN035 OVC070 08/07 A3005 RMK AO2 RAB07E22DZB22 P0000 T00830072
KPIT 241951Z 11008KT 10SM SCT006 BKN034 OVC070 08/07 A3006 RMK AO2 DZE46 SLP188 P0000 T00830072

METAR Board
Radar Display
Forecast Discussion

FOR SITUATIONAL AWARENESS. NOT TO BE USED FOR FLIGHT PLANNING PURPOSES.